Time;durP1;ratioP1;P1;durP2;ratioP2;P2;SDS_P1;SDS_P2;PMS_P1;PMS_P2;Temp;Humidity;BMP_temperature;BMP_pressure;BME280_temperature;BME280_humidity;BME280_pressure;Samples;Min_cycle;Max_cycle;Signal;HPM_P1;HPM_P2
2021/09/29 00:00:49;;;;;;;9.75;5.40;;;;;;;;;;5025430;28;20129;-73
2021/09/29 00:03:18;;;;;;;9.80;5.60;;;;;;;;;;5026755;28;20115;-69
2021/09/29 00:05:46;;;;;;;10.25;4.95;;;;;;;;;;5012031;28;20493;-69
2021/09/29 00:08:15;;;;;;;12.57;5.78;;;;;;;;;;5028206;28;20041;-73
2021/09/29 00:10:43;;;;;;;8.60;5.38;;;;;;;;;;5025976;28;20042;-68
2021/09/29 00:13:13;;;;;;;8.95;5.47;;;;;;;;;;5017048;28;20132;-68
2021/09/29 00:15:41;;;;;;;11.55;5.03;;;;;;;;;;5022099;28;20042;-68
2021/09/29 00:18:10;;;;;;;7.72;5.05;;;;;;;;;;5017096;28;20045;-69
2021/09/29 00:20:38;;;;;;;8.32;5.18;;;;;;;;;;5022842;28;20578;-73
2021/09/29 00:23:06;;;;;;;7.93;5.15;;;;;;;;;;5017048;28;20159;-70
2021/09/29 00:25:35;;;;;;;9.70;5.35;;;;;;;;;;5030138;28;20132;-68
2021/09/29 00:28:03;;;;;;;11.90;5.68;;;;;;;;;;5030278;28;20042;-70
2021/09/29 00:30:36;;;;;;;10.00;5.82;;;;;;;;;;5026902;28;20049;-72
2021/09/29 00:33:05;;;;;;;9.68;5.47;;;;;;;;;;5028371;28;20108;-70
2021/09/29 00:35:33;;;;;;;11.00;5.30;;;;;;;;;;5016547;28;20510;-72
2021/09/29 00:38:01;;;;;;;8.88;5.13;;;;;;;;;;5033786;28;20056;-67
2021/09/29 00:40:30;;;;;;;8.40;5.45;;;;;;;;;;5041485;28;20089;-68
2021/09/29 00:42:58;;;;;;;8.52;5.47;;;;;;;;;;5029204;28;20157;-71
2021/09/29 00:45:26;;;;;;;9.18;5.28;;;;;;;;;;5030612;28;20089;-68
2021/09/29 00:47:56;;;;;;;10.50;5.90;;;;;;;;;;5026867;28;20160;-68
2021/09/29 00:50:24;;;;;;;8.27;5.57;;;;;;;;;;5024060;28;20049;-68
2021/09/29 00:52:52;;;;;;;8.93;5.00;;;;;;;;;;5026444;28;20045;-71
2021/09/29 00:55:20;;;;;;;9.45;5.22;;;;;;;;;;5030170;28;20054;-68
2021/09/29 00:57:49;;;;;;;9.35;5.50;;;;;;;;;;5023765;28;20081;-68
2021/09/29 01:00:18;;;;;;;9.43;5.68;;;;;;;;;;5031906;28;20089;-71
2021/09/29 01:02:46;;;;;;;10.13;5.97;;;;;;;;;;5027721;28;20050;-68
2021/09/29 01:05:16;;;;;;;9.80;5.47;;;;;;;;;;5027077;28;20084;-72
2021/09/29 01:07:50;;;;;;;10.27;5.88;;;;;;;;;;5026663;28;20467;-68
2021/09/29 01:10:22;;;;;;;10.10;5.95;;;;;;;;;;5032531;28;20136;-76
2021/09/29 01:12:54;;;;;;;10.80;5.95;;;;;;;;;;5031744;28;20049;-71
2021/09/29 01:15:26;;;;;;;9.50;5.45;;;;;;;;;;5033118;28;20053;-68
2021/09/29 01:17:57;;;;;;;10.85;5.68;;;;;;;;;;5014287;28;20544;-69
2021/09/29 01:20:29;;;;;;;8.32;5.50;;;;;;;;;;5030835;28;20455;-67
2021/09/29 01:23:07;;;;;;;11.13;5.65;;;;;;;;;;5030212;28;20508;-68
2021/09/29 01:25:39;;;;;;;9.98;5.80;;;;;;;;;;5030352;28;20052;-74
2021/09/29 01:28:09;;;;;;;11.10;6.47;;;;;;;;;;5026644;28;20132;-68
2021/09/29 01:30:38;;;;;;;10.80;5.78;;;;;;;;;;5027469;28;20050;-68
2021/09/29 01:33:08;;;;;;;11.23;5.78;;;;;;;;;;5018893;28;20042;-68
2021/09/29 01:35:37;;;;;;;10.40;5.88;;;;;;;;;;5030640;28;20080;-68
2021/09/29 01:38:06;;;;;;;9.50;5.97;;;;;;;;;;5030723;28;20077;-68
2021/09/29 01:40:34;;;;;;;13.43;6.63;;;;;;;;;;5034815;28;20092;-69
2021/09/29 01:43:02;;;;;;;11.65;6.78;;;;;;;;;;5035313;28;20052;-72
2021/09/29 01:45:32;;;;;;;13.80;6.55;;;;;;;;;;5048686;28;20484;-68
2021/09/29 01:48:00;;;;;;;11.23;6.40;;;;;;;;;;5053047;28;20049;-73
2021/09/29 01:50:30;;;;;;;10.57;6.50;;;;;;;;;;5036731;28;20132;-68
2021/09/29 01:52:59;;;;;;;14.07;7.63;;;;;;;;;;5039794;28;20147;-68
2021/09/29 01:55:28;;;;;;;11.52;7.03;;;;;;;;;;5042465;28;20524;-67
2021/09/29 01:57:57;;;;;;;12.50;7.00;;;;;;;;;;5048996;28;20045;-70
2021/09/29 02:00:25;;;;;;;12.25;7.13;;;;;;;;;;5050840;28;20047;-68
2021/09/29 02:02:56;;;;;;;13.35;7.32;;;;;;;;;;5047891;28;20060;-68
2021/09/29 02:05:29;;;;;;;15.52;8.38;;;;;;;;;;5032802;28;20049;-70
2021/09/29 02:07:58;;;;;;;18.50;9.57;;;;;;;;;;5044616;28;20045;-68
2021/09/29 02:10:26;;;;;;;14.13;8.48;;;;;;;;;;5045282;28;20049;-67
2021/09/29 02:12:55;;;;;;;15.20;9.02;;;;;;;;;;5033607;28;20506;-68
2021/09/29 02:15:23;;;;;;;14.60;8.27;;;;;;;;;;5031861;28;20482;-74
2021/09/29 02:17:52;;;;;;;20.23;9.93;;;;;;;;;;5034509;28;20069;-71
2021/09/29 02:20:22;;;;;;;19.08;10.27;;;;;;;;;;5035168;28;20060;-69
2021/09/29 02:22:50;;;;;;;20.65;11.68;;;;;;;;;;5038552;28;20120;-70
2021/09/29 02:25:18;;;;;;;24.05;11.30;;;;;;;;;;5037226;28;20077;-73
2021/09/29 02:27:47;;;;;;;19.75;11.40;;;;;;;;;;5036678;28;20115;-68
2021/09/29 02:30:15;;;;;;;16.65;9.55;;;;;;;;;;5049654;28;20049;-67
2021/09/29 02:32:44;;;;;;;24.30;11.80;;;;;;;;;;5037546;28;20091;-68
2021/09/29 02:35:12;;;;;;;20.30;11.52;;;;;;;;;;5039269;28;20041;-70
2021/09/29 02:37:42;;;;;;;21.75;11.15;;;;;;;;;;5037250;28;20121;-67
2021/09/29 02:40:10;;;;;;;22.45;10.88;;;;;;;;;;5047398;28;20128;-68
2021/09/29 02:42:41;;;;;;;24.08;11.55;;;;;;;;;;5051197;28;20063;-68
2021/09/29 02:45:09;;;;;;;21.27;10.95;;;;;;;;;;5056232;28;20084;-68
2021/09/29 02:47:37;;;;;;;20.63;10.98;;;;;;;;;;5046907;28;20857;-73
2021/09/29 02:50:06;;;;;;;19.70;10.82;;;;;;;;;;5039027;28;20045;-68
2021/09/29 02:52:35;;;;;;;20.60;10.85;;;;;;;;;;5044070;28;20055;-70
2021/09/29 02:55:05;;;;;;;23.73;11.55;;;;;;;;;;5046165;28;20041;-73
2021/09/29 02:57:33;;;;;;;29.10;12.07;;;;;;;;;;5043681;28;20128;-73
2021/09/29 03:00:01;;;;;;;21.40;11.35;;;;;;;;;;5048908;28;20045;-71
2021/09/29 03:02:30;;;;;;;20.35;11.10;;;;;;;;;;5045687;28;20141;-69
2021/09/29 03:04:58;;;;;;;20.75;10.90;;;;;;;;;;5031165;28;20045;-72
2021/09/29 03:07:26;;;;;;;20.45;11.13;;;;;;;;;;5043423;28;20132;-71
2021/09/29 03:09:54;;;;;;;22.63;11.48;;;;;;;;;;5041954;28;20450;-68
2021/09/29 03:12:24;;;;;;;24.60;11.77;;;;;;;;;;5035316;28;20132;-69
2021/09/29 03:14:52;;;;;;;22.27;11.05;;;;;;;;;;5045013;28;20131;-68
2021/09/29 03:17:21;;;;;;;22.73;11.85;;;;;;;;;;5040854;28;20057;-68
2021/09/29 03:19:49;;;;;;;24.52;11.50;;;;;;;;;;5035800;28;20056;-68
2021/09/29 03:22:17;;;;;;;21.98;11.77;;;;;;;;;;5042618;28;20491;-71
2021/09/29 03:24:46;;;;;;;26.65;13.00;;;;;;;;;;5030816;28;20085;-68
2021/09/29 03:27:19;;;;;;;20.62;11.05;;;;;;;;;;1487150;28;10022862;-69
2021/09/29 03:29:49;;;;;;;25.58;12.75;;;;;;;;;;4004840;28;10000993;-69
2021/09/29 03:32:17;;;;;;;29.35;12.82;;;;;;;;;;5037426;28;20121;-70
2021/09/29 03:34:45;;;;;;;26.92;13.77;;;;;;;;;;5032686;28;20049;-70
2021/09/29 03:37:14;;;;;;;25.17;12.35;;;;;;;;;;5044175;28;20045;-68
2021/09/29 03:39:42;;;;;;;30.55;13.20;;;;;;;;;;5035598;28;20077;-68
2021/09/29 03:42:10;;;;;;;25.00;11.98;;;;;;;;;;5046625;28;20128;-70
2021/09/29 03:44:38;;;;;;;27.25;12.80;;;;;;;;;;5043905;28;20543;-68
2021/09/29 03:47:08;;;;;;;28.15;12.40;;;;;;;;;;5047758;28;20133;-70
2021/09/29 03:49:36;;;;;;;27.20;12.25;;;;;;;;;;5035212;28;20129;-71
2021/09/29 03:52:05;;;;;;;24.25;11.98;;;;;;;;;;5047045;28;20124;-68
2021/09/29 03:54:33;;;;;;;28.33;12.10;;;;;;;;;;5035774;28;20049;-70
2021/09/29 03:57:02;;;;;;;25.17;11.52;;;;;;;;;;5030513;28;20163;-68
2021/09/29 03:59:31;;;;;;;25.17;11.80;;;;;;;;;;5036186;28;20079;-69
2021/09/29 04:01:59;;;;;;;27.15;12.13;;;;;;;;;;5037264;28;20567;-72
2021/09/29 04:04:29;;;;;;;27.35;12.07;;;;;;;;;;5041174;28;20041;-68
2021/09/29 04:07:01;;;;;;;23.77;11.88;;;;;;;;;;5046286;28;20080;-67
2021/09/29 04:09:29;;;;;;;22.42;11.43;;;;;;;;;;5034548;28;20087;-67
2021/09/29 04:11:57;;;;;;;25.50;11.52;;;;;;;;;;5041868;28;20053;-69
2021/09/29 04:14:25;;;;;;;28.95;12.32;;;;;;;;;;5023166;28;20084;-68
2021/09/29 04:16:54;;;;;;;23.05;10.75;;;;;;;;;;5047853;28;20056;-67
2021/09/29 04:19:22;;;;;;;24.50;11.30;;;;;;;;;;5049944;28;20060;-68
2021/09/29 04:21:52;;;;;;;24.70;11.55;;;;;;;;;;5056612;28;20128;-68
2021/09/29 04:24:20;;;;;;;22.75;10.57;;;;;;;;;;5038573;28;20064;-69
2021/09/29 04:26:50;;;;;;;22.10;10.23;;;;;;;;;;5044491;28;20057;-68
2021/09/29 04:29:19;;;;;;;23.25;10.23;;;;;;;;;;5034916;28;20053;-68
2021/09/29 04:31:47;;;;;;;21.95;10.68;;;;;;;;;;5033925;28;20040;-70
2021/09/29 04:34:15;;;;;;;22.05;9.88;;;;;;;;;;5041560;28;20175;-71
2021/09/29 04:36:46;;;;;;;20.70;9.65;;;;;;;;;;5048612;28;20100;-70
2021/09/29 04:39:16;;;;;;;27.25;11.32;;;;;;;;;;5032876;28;20156;-68
2021/09/29 04:41:44;;;;;;;22.73;11.25;;;;;;;;;;5027578;28;20084;-68
2021/09/29 04:44:13;;;;;;;23.65;10.63;;;;;;;;;;5024582;28;20049;-68
2021/09/29 04:46:41;;;;;;;23.77;10.15;;;;;;;;;;5020260;28;20057;-69
2021/09/29 04:49:09;;;;;;;19.95;10.10;;;;;;;;;;5018894;28;20061;-68
2021/09/29 04:51:38;;;;;;;20.20;10.57;;;;;;;;;;5021157;28;20056;-68
2021/09/29 04:54:07;;;;;;;22.48;10.55;;;;;;;;;;5018504;28;20373;-69
2021/09/29 04:56:37;;;;;;;20.95;9.95;;;;;;;;;;5017254;28;20077;-71
2021/09/29 04:59:05;;;;;;;21.23;9.80;;;;;;;;;;5021668;28;20049;-69
2021/09/29 05:01:35;;;;;;;19.92;9.57;;;;;;;;;;5025062;28;20128;-72
2021/09/29 05:04:04;;;;;;;18.52;9.32;;;;;;;;;;5020219;28;20482;-69
2021/09/29 05:06:33;;;;;;;20.17;9.55;;;;;;;;;;5020166;28;20078;-73
2021/09/29 05:09:01;;;;;;;22.50;9.68;;;;;;;;;;5019592;28;20070;-69
2021/09/29 05:11:31;;;;;;;18.08;9.10;;;;;;;;;;5025363;28;20141;-68
2021/09/29 05:14:00;;;;;;;22.63;9.77;;;;;;;;;;5022649;28;20053;-70
2021/09/29 05:16:28;;;;;;;19.45;9.00;;;;;;;;;;5025309;28;20324;-70
2021/09/29 05:18:57;;;;;;;21.20;10.30;;;;;;;;;;5023985;28;20144;-71
2021/09/29 05:21:25;;;;;;;15.52;8.55;;;;;;;;;;5026792;28;20477;-77
2021/09/29 05:23:53;;;;;;;19.13;9.15;;;;;;;;;;5022722;28;20084;-72
2021/09/29 05:26:22;;;;;;;16.85;8.25;;;;;;;;;;5030769;28;20080;-69
2021/09/29 05:28:51;;;;;;;20.83;8.55;;;;;;;;;;5027534;28;20136;-70
2021/09/29 05:31:21;;;;;;;17.27;8.65;;;;;;;;;;5033502;28;20801;-69
2021/09/29 05:33:49;;;;;;;16.23;8.35;;;;;;;;;;5031857;28;20053;-70
2021/09/29 05:36:18;;;;;;;17.80;8.57;;;;;;;;;;5036395;28;20140;-69
2021/09/29 05:38:47;;;;;;;17.13;8.38;;;;;;;;;;5029805;28;20111;-68
2021/09/29 05:41:15;;;;;;;17.58;8.48;;;;;;;;;;5030848;28;20400;-76
2021/09/29 05:43:43;;;;;;;19.67;8.10;;;;;;;;;;5027577;28;20476;-67
2021/09/29 05:46:11;;;;;;;17.08;8.43;;;;;;;;;;5028476;28;20132;-68
2021/09/29 05:48:42;;;;;;;14.77;7.55;;;;;;;;;;5025607;28;20045;-69
2021/09/29 05:51:11;;;;;;;18.52;8.18;;;;;;;;;;5029361;28;20140;-73
2021/09/29 05:53:39;;;;;;;22.00;7.57;;;;;;;;;;5030356;28;20463;-69
2021/09/29 05:56:09;;;;;;;15.30;7.22;;;;;;;;;;5034141;28;20053;-68
2021/09/29 05:58:40;;;;;;;14.27;6.80;;;;;;;;;;5031660;28;20140;-73
2021/09/29 06:01:08;;;;;;;14.95;7.78;;;;;;;;;;5031561;28;20063;-68
2021/09/29 06:03:37;;;;;;;12.90;6.80;;;;;;;;;;5029348;28;20051;-68
2021/09/29 06:06:07;;;;;;;17.75;7.50;;;;;;;;;;5032345;28;20064;-68
2021/09/29 06:08:35;;;;;;;14.55;6.88;;;;;;;;;;5034075;28;20072;-76
2021/09/29 06:11:03;;;;;;;13.10;5.95;;;;;;;;;;5028289;28;20057;-71
2021/09/29 06:13:32;;;;;;;14.68;6.78;;;;;;;;;;5033069;28;20148;-70
2021/09/29 06:16:06;;;;;;;14.30;6.13;;;;;;;;;;5028711;28;20118;-67
2021/09/29 06:18:35;;;;;;;14.65;6.95;;;;;;;;;;5030912;28;20143;-69
2021/09/29 06:21:03;;;;;;;12.20;5.65;;;;;;;;;;5036279;28;20140;-71
2021/09/29 06:23:34;;;;;;;11.43;5.40;;;;;;;;;;5028098;28;20052;-68
2021/09/29 06:26:03;;;;;;;8.40;5.10;;;;;;;;;;5034002;28;20132;-79
2021/09/29 06:28:37;;;;;;;13.60;5.13;;;;;;;;;;5028254;28;20076;-82
2021/09/29 06:31:05;;;;;;;8.60;4.68;;;;;;;;;;5033526;28;20100;-67
2021/09/29 06:33:34;;;;;;;9.65;4.90;;;;;;;;;;5028704;28;20132;-72
2021/09/29 06:36:03;;;;;;;9.02;4.80;;;;;;;;;;5028320;28;20251;-68
2021/09/29 06:38:33;;;;;;;9.02;4.28;;;;;;;;;;5031053;28;20597;-75
2021/09/29 06:41:01;;;;;;;9.35;4.70;;;;;;;;;;5032355;28;20092;-68
2021/09/29 06:43:30;;;;;;;6.25;3.63;;;;;;;;;;5032057;28;20132;-71
2021/09/29 06:45:58;;;;;;;8.63;4.03;;;;;;;;;;5030062;28;20168;-80
2021/09/29 06:48:26;;;;;;;7.80;3.70;;;;;;;;;;5036972;28;20124;-68
2021/09/29 06:50:54;;;;;;;8.20;3.90;;;;;;;;;;5032591;28;20136;-75
2021/09/29 06:53:24;;;;;;;7.25;4.03;;;;;;;;;;5029526;28;20077;-68
2021/09/29 06:55:53;;;;;;;8.70;3.63;;;;;;;;;;5030796;28;20135;-72
2021/09/29 06:58:22;;;;;;;5.72;3.38;;;;;;;;;;5035763;28;20844;-68
2021/09/29 07:00:50;;;;;;;6.15;3.72;;;;;;;;;;5033670;28;20052;-69
2021/09/29 07:03:20;;;;;;;6.88;3.08;;;;;;;;;;5027846;28;20052;-74
2021/09/29 07:05:49;;;;;;;4.93;2.80;;;;;;;;;;5027839;28;20127;-68
2021/09/29 07:08:18;;;;;;;5.88;2.97;;;;;;;;;;5029751;28;20133;-69
2021/09/29 07:10:46;;;;;;;6.03;3.00;;;;;;;;;;5021166;28;20152;-69
2021/09/29 07:13:16;;;;;;;3.53;2.47;;;;;;;;;;5030556;28;20103;-79
2021/09/29 07:15:45;;;;;;;4.03;2.08;;;;;;;;;;5031322;28;20453;-67
2021/09/29 07:18:14;;;;;;;4.72;2.40;;;;;;;;;;5036199;28;20136;-68
2021/09/29 07:20:43;;;;;;;4.28;2.35;;;;;;;;;;5022862;28;20050;-72
2021/09/29 07:23:12;;;;;;;4.13;2.38;;;;;;;;;;5025755;28;20505;-67
2021/09/29 07:25:41;;;;;;;4.13;1.90;;;;;;;;;;5035038;28;20051;-76
2021/09/29 07:28:09;;;;;;;4.63;2.13;;;;;;;;;;5028421;28;20112;-73
2021/09/29 07:30:41;;;;;;;2.85;1.90;;;;;;;;;;5020973;28;20132;-73
2021/09/29 07:33:10;;;;;;;4.68;1.88;;;;;;;;;;5027686;28;20065;-69
2021/09/29 07:35:40;;;;;;;7.05;1.92;;;;;;;;;;5031836;28;20049;-72
2021/09/29 07:38:09;;;;;;;4.68;1.70;;;;;;;;;;5032694;28;20107;-72
2021/09/29 07:40:38;;;;;;;4.55;2.58;;;;;;;;;;5032147;28;20160;-69
2021/09/29 07:43:07;;;;;;;4.80;1.73;;;;;;;;;;5029263;28;20420;-69
2021/09/29 07:45:35;;;;;;;4.03;1.60;;;;;;;;;;5022790;28;20147;-69
2021/09/29 07:48:05;;;;;;;4.57;1.98;;;;;;;;;;5026207;28;20139;-74
2021/09/29 07:50:34;;;;;;;5.72;1.65;;;;;;;;;;5031700;28;20169;-76
2021/09/29 07:53:02;;;;;;;3.65;1.60;;;;;;;;;;5026662;28;20496;-68
2021/09/29 07:55:30;;;;;;;2.45;1.38;;;;;;;;;;5032487;28;20050;-69
2021/09/29 07:57:59;;;;;;;2.42;1.25;;;;;;;;;;5028720;28;20080;-72
2021/09/29 08:00:27;;;;;;;2.45;1.25;;;;;;;;;;5029365;28;20060;-72
2021/09/29 08:02:56;;;;;;;3.78;1.30;;;;;;;;;;5032624;28;20495;-69
2021/09/29 08:05:26;;;;;;;1.95;1.30;;;;;;;;;;5029016;28;20049;-70
2021/09/29 08:07:55;;;;;;;3.22;1.48;;;;;;;;;;5031921;28;20478;-72
2021/09/29 08:10:23;;;;;;;2.13;1.00;;;;;;;;;;5023715;28;20516;-69
2021/09/29 08:12:53;;;;;;;3.55;1.35;;;;;;;;;;5023889;28;20052;-69
2021/09/29 08:15:21;;;;;;;3.25;1.40;;;;;;;;;;5021794;28;20543;-71
2021/09/29 08:17:54;;;;;;;3.58;1.00;;;;;;;;;;5026534;28;20045;-68
2021/09/29 08:20:25;;;;;;;2.30;0.93;;;;;;;;;;5029446;28;20127;-68
2021/09/29 08:22:59;;;;;;;1.55;1.20;;;;;;;;;;5028055;28;20511;-71
2021/09/29 08:25:44;;;;;;;6.53;1.73;;;;;;;;;;5029800;28;20369;-68
2021/09/29 08:28:23;;;;;;;1.58;1.10;;;;;;;;;;5024075;28;20561;-68
2021/09/29 08:31:04;;;;;;;2.95;1.17;;;;;;;;;;5029692;28;20401;-67
2021/09/29 08:34:00;;;;;;;4.07;1.33;;;;;;;;;;5027967;28;20045;-68
2021/09/29 08:36:34;;;;;;;3.38;1.30;;;;;;;;;;5026896;28;20088;-68
2021/09/29 08:39:07;;;;;;;3.58;1.30;;;;;;;;;;5024811;28;20053;-68
2021/09/29 08:41:50;;;;;;;1.40;1.08;;;;;;;;;;5048544;28;20460;-67
2021/09/29 08:44:23;;;;;;;1.70;0.82;;;;;;;;;;5046544;28;20099;-68
2021/09/29 08:49:51;;;;;;;2.33;1.10;;;;;;;;;;5026280;28;20050;-67
2021/09/29 08:55:45;;;;;;;2.05;0.90;;;;;;;;;;5148708;27;20420;-71
2021/09/29 09:17:52;;;;;;;5.50;1.35;;;;;;;;;;5090300;28;20106;-65
2021/09/29 09:20:24;;;;;;;4.50;1.20;;;;;;;;;;5079526;28;20067;-65
2021/09/29 09:22:53;;;;;;;16.13;3.75;;;;;;;;;;5086626;28;20051;-66
2021/09/29 09:25:40;;;;;;;5.82;1.40;;;;;;;;;;5090355;28;20041;-65
2021/09/29 09:28:14;;;;;;;17.88;4.03;;;;;;;;;;5084880;28;20048;-73
2021/09/29 09:30:42;;;;;;;25.33;4.75;;;;;;;;;;5079593;28;20056;-66
2021/09/29 09:33:21;;;;;;;19.80;5.13;;;;;;;;;;5071842;28;20043;-66
2021/09/29 09:35:50;;;;;;;30.48;6.45;;;;;;;;;;5087409;28;20408;-65
2021/09/29 09:38:21;;;;;;;4.57;1.30;;;;;;;;;;5087843;28;20040;-69
2021/09/29 09:40:54;;;;;;;4.57;2.15;;;;;;;;;;5099163;28;20051;-65
2021/09/29 09:43:25;;;;;;;1.75;0.90;;;;;;;;;;5103799;28;20055;-69
2021/09/29 09:45:54;;;;;;;110.22;24.98;;;;;;;;;;5107312;28;20122;-66
2021/09/29 09:48:24;;;;;;;33.42;7.63;;;;;;;;;;5107127;27;20052;-66
2021/09/29 09:50:55;;;;;;;2.42;0.98;;;;;;;;;;5106637;28;20044;-66
2021/09/29 09:53:24;;;;;;;5.85;1.10;;;;;;;;;;5106251;27;20039;-67
2021/09/29 09:55:52;;;;;;;9.13;1.77;;;;;;;;;;5109808;28;20124;-66
2021/09/29 09:58:21;;;;;;;8.25;1.95;;;;;;;;;;5109666;28;20498;-67
2021/09/29 10:00:59;;;;;;;1.95;0.80;;;;;;;;;;5115337;27;20054;-67
2021/09/29 10:03:28;;;;;;;6.15;1.15;;;;;;;;;;5111939;27;20043;-66
2021/09/29 10:05:57;;;;;;;11.20;2.45;;;;;;;;;;5112401;27;20139;-67
2021/09/29 10:08:28;;;;;;;5.28;1.00;;;;;;;;;;5090631;28;20052;-69
2021/09/29 10:11:04;;;;;;;5.18;1.00;;;;;;;;;;5091830;28;20050;-66
2021/09/29 10:13:55;;;;;;;12.77;2.65;;;;;;;;;;5090598;27;20075;-69
2021/09/29 10:27:53;;;;;;;5.68;1.00;;;;;;;;;;5092685;28;20071;-70
2021/09/29 10:30:25;;;;;;;2.38;1.08;;;;;;;;;;5095613;28;20113;-67
2021/09/29 10:32:59;;;;;;;2.63;0.63;;;;;;;;;;5078747;28;20071;-67
2021/09/29 10:35:35;;;;;;;3.03;0.70;;;;;;;;;;5091485;28;20093;-70
2021/09/29 10:41:00;;;;;;;1.15;0.90;;;;;;;;;;5095003;28;20415;-66
2021/09/29 10:43:33;;;;;;;2.08;0.80;;;;;;;;;;5099707;28;20079;-68
2021/09/29 10:46:16;;;;;;;0.98;0.50;;;;;;;;;;5094983;28;20079;-66
2021/09/29 10:49:04;;;;;;;0.80;0.60;;;;;;;;;;5099820;28;20387;-69
2021/09/29 11:06:32;;;;;;;0.85;0.60;;;;;;;;;;5077625;28;20047;-66
2021/09/29 11:09:19;;;;;;;2.20;0.63;;;;;;;;;;5076681;28;20131;-65
2021/09/29 11:28:46;;;;;;;5.65;0.90;;;;;;;;;;5074065;28;20101;-65
2021/09/29 11:31:18;;;;;;;3.13;0.63;;;;;;;;;;5085439;28;20043;-72
2021/09/29 11:33:57;;;;;;;2.30;0.73;;;;;;;;;;5081201;28;20113;-72
2021/09/29 11:36:42;;;;;;;1.48;0.63;;;;;;;;;;5088196;28;20052;-67
2021/09/29 11:39:35;;;;;;;1.92;0.93;;;;;;;;;;5092531;27;20052;-65
2021/09/29 12:10:27;;;;;;;1.52;0.70;;;;;;;;;;5081882;28;20055;-69
2021/09/29 12:13:00;;;;;;;1.98;0.70;;;;;;;;;;5077464;28;20431;-75
2021/09/29 12:15:29;;;;;;;1.58;0.38;;;;;;;;;;5094688;28;20542;-73
2021/09/29 12:17:57;;;;;;;1.90;0.65;;;;;;;;;;5081837;28;20055;-69
2021/09/29 12:20:28;;;;;;;2.58;0.60;;;;;;;;;;5094597;28;20036;-68
2021/09/29 12:22:58;;;;;;;2.83;0.75;;;;;;;;;;5086120;28;20060;-68
2021/09/29 12:25:31;;;;;;;2.25;0.50;;;;;;;;;;5084879;28;20087;-78
2021/09/29 12:28:18;;;;;;;3.38;0.98;;;;;;;;;;5087107;28;20048;-74
2021/09/29 12:31:07;;;;;;;1.50;0.70;;;;;;;;;;5086819;28;20097;-74
2021/09/29 12:33:49;;;;;;;2.50;1.20;;;;;;;;;;5087951;28;20077;-76
2021/09/29 12:36:27;;;;;;;4.35;0.70;;;;;;;;;;5072251;28;20044;-67
2021/09/29 12:38:55;;;;;;;2.67;0.82;;;;;;;;;;5072715;28;20040;-70
2021/09/29 12:41:27;;;;;;;2.47;0.57;;;;;;;;;;5085521;28;20039;-68
2021/09/29 12:44:03;;;;;;;1.23;0.70;;;;;;;;;;5070224;28;20128;-77
2021/09/29 12:46:31;;;;;;;1.67;0.80;;;;;;;;;;5074888;28;20052;-72
2021/09/29 12:49:08;;;;;;;2.05;0.60;;;;;;;;;;5066971;28;20493;-77
2021/09/29 12:51:41;;;;;;;1.55;0.55;;;;;;;;;;5072092;28;20415;-72
2021/09/29 12:54:15;;;;;;;3.58;1.15;;;;;;;;;;5090715;28;20052;-71
2021/09/29 12:56:43;;;;;;;2.42;0.80;;;;;;;;;;5077280;28;20458;-71
2021/09/29 12:59:13;;;;;;;1.50;0.65;;;;;;;;;;5085004;28;20119;-68
2021/09/29 13:01:42;;;;;;;3.20;0.82;;;;;;;;;;5086392;28;20530;-67
2021/09/29 13:04:11;;;;;;;1.77;0.60;;;;;;;;;;5074878;28;20053;-70
2021/09/29 13:06:41;;;;;;;1.05;0.63;;;;;;;;;;5090729;28;20044;-76
2021/09/29 13:09:09;;;;;;;1.52;0.70;;;;;;;;;;5083659;28;20058;-68
2021/09/29 13:11:38;;;;;;;1.70;0.70;;;;;;;;;;5095444;28;20102;-70
2021/09/29 13:14:06;;;;;;;2.40;0.70;;;;;;;;;;5090074;28;20473;-71
2021/09/29 13:16:36;;;;;;;1.50;0.77;;;;;;;;;;5088088;28;20043;-72
2021/09/29 13:19:09;;;;;;;2.22;1.00;;;;;;;;;;5084853;28;20048;-74
2021/09/29 13:21:59;;;;;;;2.58;0.85;;;;;;;;;;5082976;28;20500;-68
2021/09/29 13:24:33;;;;;;;0.65;0.60;;;;;;;;;;5085833;28;20138;-71
2021/09/29 13:27:20;;;;;;;1.30;0.70;;;;;;;;;;5081085;28;20088;-73
2021/09/29 13:38:45;;;;;;;3.83;1.10;;;;;;;;;;5080121;28;20097;-67
2021/09/29 13:41:14;;;;;;;2.40;0.75;;;;;;;;;;5089561;28;20059;-70
2021/09/29 13:43:42;;;;;;;5.40;0.98;;;;;;;;;;5099529;27;20058;-68
2021/09/29 13:46:11;;;;;;;1.67;0.63;;;;;;;;;;5108757;28;20058;-68
2021/09/29 13:48:41;;;;;;;3.90;1.05;;;;;;;;;;5085350;28;20051;-72
2021/09/29 13:51:09;;;;;;;1.88;0.95;;;;;;;;;;5086597;28;20075;-71
2021/09/29 13:53:38;;;;;;;2.20;0.80;;;;;;;;;;5093007;28;20064;-70
2021/09/29 13:56:09;;;;;;;0.80;0.60;;;;;;;;;;5094873;28;20134;-67
2021/09/29 14:29:22;;;;;;;1.25;0.73;;;;;;;;;;5079908;28;20480;-71
2021/09/29 14:32:03;;;;;;;2.53;0.63;;;;;;;;;;5086708;28;20438;-70
2021/09/29 14:34:32;;;;;;;4.03;0.85;;;;;;;;;;5078180;28;20052;-69
2021/09/29 14:37:02;;;;;;;1.13;0.70;;;;;;;;;;5102646;28;20419;-72
2021/09/29 14:39:31;;;;;;;2.60;0.60;;;;;;;;;;5094383;28;20517;-67
2021/09/29 14:41:59;;;;;;;2.45;0.47;;;;;;;;;;5083630;28;20075;-72
2021/09/29 14:44:29;;;;;;;4.68;0.82;;;;;;;;;;5088478;28;20043;-68
2021/09/29 14:46:58;;;;;;;1.30;0.63;;;;;;;;;;5081328;28;20056;-67
2021/09/29 14:49:28;;;;;;;2.80;0.80;;;;;;;;;;5094457;28;20046;-69
2021/09/29 14:51:58;;;;;;;2.55;0.70;;;;;;;;;;5071874;28;20048;-70
2021/09/29 14:54:28;;;;;;;1.58;0.77;;;;;;;;;;5089825;27;20056;-73
2021/09/29 14:56:56;;;;;;;2.78;0.70;;;;;;;;;;5082344;28;20040;-71
2021/09/29 14:59:25;;;;;;;1.10;0.52;;;;;;;;;;5099517;28;20062;-66
2021/09/29 15:01:53;;;;;;;3.40;0.80;;;;;;;;;;5068332;28;20041;-76
2021/09/29 15:04:22;;;;;;;2.45;1.00;;;;;;;;;;5068137;28;20055;-71
2021/09/29 15:06:51;;;;;;;2.42;0.70;;;;;;;;;;5067714;28;20052;-73
2021/09/29 15:09:19;;;;;;;1.05;0.68;;;;;;;;;;5065712;28;20040;-71
2021/09/29 15:11:49;;;;;;;0.90;0.70;;;;;;;;;;5066542;28;20386;-75
2021/09/29 15:14:25;;;;;;;1.17;0.60;;;;;;;;;;5064307;28;20144;-68
2021/09/29 15:16:57;;;;;;;1.33;0.70;;;;;;;;;;5062428;28;20124;-68
2021/09/29 15:19:39;;;;;;;1.50;0.70;;;;;;;;;;5066210;28;20041;-69
2021/09/29 15:22:24;;;;;;;1.77;0.70;;;;;;;;;;5055533;28;20048;-73
2021/09/29 15:25:00;;;;;;;1.27;0.50;;;;;;;;;;5076507;28;20043;-71
2021/09/29 15:30:38;;;;;;;2.10;0.57;;;;;;;;;;5085353;28;20052;-68
2021/09/29 15:47:01;;;;;;;1.08;0.55;;;;;;;;;;5083720;28;20586;-71
2021/09/29 15:52:30;;;;;;;0.93;0.63;;;;;;;;;;5083369;28;20036;-67
2021/09/29 15:55:07;;;;;;;0.95;0.70;;;;;;;;;;5080292;28;20090;-67
2021/09/29 16:00:46;;;;;;;1.30;0.68;;;;;;;;;;5082371;28;20089;-67
2021/09/29 16:03:36;;;;;;;1.05;0.80;;;;;;;;;;5076123;28;20048;-73
2021/09/29 16:06:16;;;;;;;1.17;0.63;;;;;;;;;;5061539;28;20059;-67
2021/09/29 16:08:58;;;;;;;1.33;0.60;;;;;;;;;;5052636;28;20129;-70
2021/09/29 16:11:58;;;;;;;1.02;0.70;;;;;;;;;;5061907;28;20094;-67
2021/09/29 16:14:54;;;;;;;1.33;0.55;;;;;;;;;;5059162;28;20131;-68
2021/09/29 16:23:17;;;;;;;1.13;0.60;;;;;;;;;;5045339;28;20132;-70
2021/09/29 16:31:19;;;;;;;4.90;0.80;;;;;;;;;;5056824;28;20045;-66
2021/09/29 16:33:55;;;;;;;1.20;0.63;;;;;;;;;;5061650;28;20052;-73
2021/09/29 16:36:24;;;;;;;3.05;0.77;;;;;;;;;;5061350;28;20459;-69
2021/09/29 16:38:52;;;;;;;2.20;0.70;;;;;;;;;;5058544;28;20044;-64
2021/09/29 16:41:21;;;;;;;1.20;0.65;;;;;;;;;;5056112;28;20041;-75
2021/09/29 16:43:50;;;;;;;2.67;0.73;;;;;;;;;;5066933;28;20108;-68
2021/09/29 16:46:22;;;;;;;2.05;0.57;;;;;;;;;;5077889;28;20127;-71
2021/09/29 16:48:52;;;;;;;2.47;0.90;;;;;;;;;;5081823;28;20109;-66
2021/09/29 16:51:25;;;;;;;2.13;0.93;;;;;;;;;;5081167;28;20483;-64
2021/09/29 16:54:05;;;;;;;1.83;0.85;;;;;;;;;;5071109;28;20057;-69
2021/09/29 16:56:35;;;;;;;1.98;0.80;;;;;;;;;;5060812;28;20044;-66
2021/09/29 16:59:06;;;;;;;5.45;1.20;;;;;;;;;;5061640;28;20098;-68
2021/09/29 17:01:34;;;;;;;2.80;0.88;;;;;;;;;;5058989;28;20496;-69
2021/09/29 17:04:05;;;;;;;3.38;1.00;;;;;;;;;;5059672;28;20068;-64
2021/09/29 17:06:33;;;;;;;1.50;0.70;;;;;;;;;;5059900;28;20053;-67
2021/09/29 17:09:03;;;;;;;1.67;0.82;;;;;;;;;;5058368;28;20057;-75
2021/09/29 17:11:31;;;;;;;1.50;0.90;;;;;;;;;;5055312;28;20057;-67
2021/09/29 17:13:59;;;;;;;1.80;0.90;;;;;;;;;;5056055;28;20044;-68
2021/09/29 17:16:28;;;;;;;1.85;0.70;;;;;;;;;;5060917;28;20048;-74
2021/09/29 17:18:59;;;;;;;4.28;1.00;;;;;;;;;;5061799;28;20053;-66
2021/09/29 17:21:29;;;;;;;2.25;0.70;;;;;;;;;;5060710;28;20167;-68
2021/09/29 17:23:57;;;;;;;2.45;0.88;;;;;;;;;;5061432;28;20056;-71
2021/09/29 17:26:26;;;;;;;2.97;0.85;;;;;;;;;;5062745;28;20052;-73
2021/09/29 17:28:57;;;;;;;4.32;0.88;;;;;;;;;;5062243;28;20049;-65
2021/09/29 17:31:30;;;;;;;3.05;1.30;;;;;;;;;;5064802;28;20253;-69
2021/09/29 17:34:06;;;;;;;0.90;0.65;;;;;;;;;;5071667;28;20353;-69
2021/09/29 17:36:54;;;;;;;1.65;0.80;;;;;;;;;;5084374;28;20056;-71
2021/09/29 17:53:10;;;;;;;0.90;0.40;;;;;;;;;;5060147;28;20571;-65
2021/09/29 17:55:39;;;;;;;3.97;1.10;;;;;;;;;;5063545;28;20049;-67
2021/09/29 17:58:07;;;;;;;0.60;0.35;;;;;;;;;;5065502;28;20533;-65
2021/09/29 18:00:38;;;;;;;1.75;0.55;;;;;;;;;;5063900;28;20094;-72
2021/09/29 18:03:09;;;;;;;2.40;0.60;;;;;;;;;;5062379;28;20072;-68
2021/09/29 18:05:39;;;;;;;0.57;0.30;;;;;;;;;;5043961;28;20385;-67